Penn Wynne, Pennsylvania
Current Conditions -  °F | °C
As of 10:54 PM on Wednesday 26 Nov 2014 (Local Time) from KPHL Reporting Station
Overcast Overcast  
Wind Chill: 29°   Ceiling: 7500
Heat Index: 37°   Visibility: 10mi
Dew Point: 31°   Wind: 12mph
Humidity: 79%   Direction: 320°NW
Pressure: 29.9"   Gusts: NA
Location:  39.9976°N, 75.2742°W
Report Text: KPHL 270354Z 32010KT 10SM OVC075 03/M01 A2990 RMK AO2 SLP125 T00281006 $
Loading
Personal Weather Stations






























Interactive Weather Map New forecast layout! Learn more

10-Day Weather Forecast

Advertisements
Track Severe Weather on mobile